Time;durP1;ratioP1;P1;durP2;ratioP2;P2;SDS_P1;SDS_P2;PMS_P1;PMS_P2;Temp;Humidity;BMP_temperature;BMP_pressure;BME280_temperature;BME280_humidity;BME280_pressure;Samples;Min_cycle;Max_cycle;Signal;HPM_P1;HPM_P2
2022/11/02 00:01:42;;;;;;;4.40;1.70;;;12.50;99.90;;;;;;4984960;28;20501;-81
2022/11/02 00:04:08;;;;;;;6.43;1.67;;;12.40;99.90;;;;;;4984109;28;20069;-81
2022/11/02 00:06:33;;;;;;;9.25;1.50;;;12.40;99.90;;;;;;4984777;28;20046;-81
2022/11/02 00:08:59;;;;;;;6.03;1.35;;;12.30;99.90;;;;;;4987333;28;20105;-81
2022/11/02 00:11:25;;;;;;;5.20;1.40;;;12.30;99.90;;;;;;4984603;28;20073;-79
2022/11/02 00:13:50;;;;;;;7.57;1.92;;;12.30;99.90;;;;;;4984749;28;20493;-80
2022/11/02 00:16:18;;;;;;;7.40;1.88;;;12.20;99.90;;;;;;4985658;28;20048;-81
2022/11/02 00:18:48;;;;;;;5.75;1.80;;;12.30;99.90;;;;;;4974980;28;20600;-81
2022/11/02 00:21:15;;;;;;;8.98;1.95;;;12.20;99.90;;;;;;4978294;28;20121;-81
2022/11/02 00:23:41;;;;;;;5.88;1.48;;;12.20;99.90;;;;;;4986642;28;20169;-81
2022/11/02 00:26:07;;;;;;;7.88;1.85;;;12.20;99.90;;;;;;4987638;28;20601;-81
2022/11/02 00:28:33;;;;;;;4.38;1.65;;;12.20;99.90;;;;;;4987098;28;20116;-81
2022/11/02 00:30:58;;;;;;;5.25;1.27;;;12.10;99.90;;;;;;4988154;28;20050;-81
2022/11/02 00:33:25;;;;;;;5.13;1.77;;;12.20;99.90;;;;;;4984625;28;20039;-81
2022/11/02 00:35:52;;;;;;;7.97;1.30;;;12.10;99.90;;;;;;4987130;28;20046;-80
2022/11/02 00:38:18;;;;;;;3.95;1.48;;;12.10;99.90;;;;;;4987303;28;20093;-81
2022/11/02 00:40:44;;;;;;;4.63;1.40;;;12.10;99.90;;;;;;4984385;28;20070;-80
2022/11/02 00:43:10;;;;;;;5.18;2.00;;;12.10;99.90;;;;;;4983251;28;20511;-81
2022/11/02 00:45:36;;;;;;;6.07;1.58;;;12.10;99.90;;;;;;4986867;28;20050;-81
2022/11/02 00:48:01;;;;;;;7.20;2.03;;;12.10;99.90;;;;;;4986386;28;20535;-81
2022/11/02 00:50:27;;;;;;;7.28;1.88;;;12.10;99.90;;;;;;4987452;28;20043;-82
2022/11/02 00:52:53;;;;;;;4.72;1.50;;;12.10;99.90;;;;;;4986491;28;20562;-81
2022/11/02 00:55:18;;;;;;;8.23;2.08;;;12.00;99.90;;;;;;4971090;28;20047;-81
2022/11/02 00:57:44;;;;;;;8.77;1.90;;;12.00;99.90;;;;;;4986145;28;20090;-81
2022/11/02 01:00:11;;;;;;;7.45;2.05;;;11.90;99.90;;;;;;4969026;28;20125;-81
2022/11/02 01:02:37;;;;;;;5.47;1.90;;;11.80;99.90;;;;;;4986241;28;20054;-81
2022/11/02 01:05:04;;;;;;;6.47;1.80;;;11.80;99.90;;;;;;4982864;28;20050;-81
2022/11/02 01:07:30;;;;;;;6.72;1.60;;;11.80;99.90;;;;;;4981892;28;20189;-81
2022/11/02 01:09:55;;;;;;;5.30;1.73;;;11.80;99.90;;;;;;4986695;28;20071;-81
2022/11/02 01:12:21;;;;;;;7.68;2.03;;;11.70;99.90;;;;;;4984473;28;20532;-82
2022/11/02 01:14:48;;;;;;;9.77;2.55;;;11.70;99.90;;;;;;4985154;28;20042;-81
2022/11/02 01:17:14;;;;;;;6.40;2.40;;;11.70;99.90;;;;;;4985404;28;20070;-80
2022/11/02 01:19:40;;;;;;;7.80;2.25;;;11.70;99.90;;;;;;4988562;28;20128;-81
2022/11/02 01:22:05;;;;;;;11.95;1.95;;;11.70;99.90;;;;;;4988232;28;20082;-81
2022/11/02 01:24:31;;;;;;;10.20;2.60;;;11.70;99.90;;;;;;4987499;28;20050;-81
2022/11/02 01:26:57;;;;;;;7.60;2.38;;;11.70;99.90;;;;;;4988660;28;20114;-81
2022/11/02 01:29:22;;;;;;;9.65;2.20;;;11.70;99.90;;;;;;4991971;28;20440;-81
2022/11/02 01:31:48;;;;;;;8.48;2.08;;;11.70;99.90;;;;;;4990448;28;20481;-81
2022/11/02 01:34:14;;;;;;;8.07;2.00;;;11.60;99.90;;;;;;4989340;28;20134;-82
2022/11/02 01:36:42;;;;;;;8.38;2.65;;;11.60;99.90;;;;;;4973875;28;20069;-81
2022/11/02 01:39:08;;;;;;;10.77;2.35;;;11.60;99.90;;;;;;4973062;28;20100;-81
2022/11/02 01:41:34;;;;;;;10.38;2.33;;;11.60;99.90;;;;;;4989148;28;20046;-81
2022/11/02 01:44:03;;;;;;;7.57;2.08;;;11.60;99.90;;;;;;4988755;28;20472;-81
2022/11/02 01:46:43;;;;;;;9.45;2.42;;;11.60;99.90;;;;;;4989244;28;20051;-80
2022/11/02 01:49:16;;;;;;;8.30;2.10;;;11.60;99.90;;;;;;4989681;28;20046;-81
2022/11/02 01:51:48;;;;;;;8.05;2.22;;;11.60;99.90;;;;;;4990350;28;20058;-82
2022/11/02 01:54:18;;;;;;;6.57;1.92;;;11.60;99.90;;;;;;4974212;28;20496;-81
2022/11/02 01:56:51;;;;;;;10.60;2.30;;;11.60;99.90;;;;;;4990384;28;20054;-82
2022/11/02 01:59:25;;;;;;;8.50;2.03;;;11.60;99.90;;;;;;4988747;28;20070;-82
2022/11/02 02:01:50;;;;;;;6.32;2.30;;;11.60;99.90;;;;;;4988889;28;20050;-81
2022/11/02 02:04:16;;;;;;;9.82;2.88;;;11.50;99.90;;;;;;4970080;28;20061;-81
2022/11/02 02:06:43;;;;;;;6.88;2.20;;;11.50;99.90;;;;;;4989090;28;20054;-81
2022/11/02 02:09:09;;;;;;;9.23;2.15;;;11.60;99.90;;;;;;4989002;28;20042;-81
2022/11/02 02:11:37;;;;;;;7.93;2.80;;;11.50;99.90;;;;;;4988007;28;20054;-81
2022/11/02 02:14:10;;;;;;;8.63;2.20;;;11.60;99.90;;;;;;4989055;28;20054;-80
2022/11/02 02:16:54;;;;;;;6.55;2.00;;;11.70;99.90;;;;;;4972848;28;20042;-82
2022/11/02 02:19:55;;;;;;;10.38;2.40;;;11.70;99.90;;;;;;4988524;28;20054;-81
2022/11/02 02:23:07;;;;;;;5.95;2.25;;;11.80;99.90;;;;;;4967261;28;20066;-80
2022/11/02 02:25:45;;;;;;;8.80;2.45;;;11.80;99.90;;;;;;4988845;28;20121;-80
2022/11/02 02:28:35;;;;;;;11.23;2.55;;;11.90;99.90;;;;;;4988686;28;20058;-82
2022/11/02 02:31:17;;;;;;;8.73;2.40;;;11.90;99.90;;;;;;4992203;28;20058;-81
2022/11/02 02:33:51;;;;;;;4.90;1.83;;;11.90;99.90;;;;;;4985640;28;20057;-80
2022/11/02 02:36:19;;;;;;;3.42;1.88;;;11.80;99.90;;;;;;4988925;28;20043;-82
2022/11/02 02:38:52;;;;;;;3.10;1.50;;;11.70;99.90;;;;;;4989905;28;20137;-82
2022/11/02 02:41:28;;;;;;;5.40;1.65;;;11.60;99.90;;;;;;4990405;28;20065;-80
2022/11/02 02:43:56;;;;;;;2.75;1.38;;;11.50;99.90;;;;;;4970475;28;20046;-81
2022/11/02 02:46:49;;;;;;;3.97;2.00;;;11.50;99.90;;;;;;4974357;28;20085;-80
2022/11/02 02:49:22;;;;;;;4.30;1.20;;;11.40;99.90;;;;;;4988483;28;20048;-81
2022/11/02 02:51:48;;;;;;;2.85;1.02;;;11.50;99.90;;;;;;4989581;28;20126;-81
2022/11/02 02:54:20;;;;;;;5.93;1.40;;;11.40;99.90;;;;;;4986956;28;20058;-81
2022/11/02 02:56:50;;;;;;;4.93;1.70;;;11.40;99.90;;;;;;4971528;28;20077;-80
2022/11/02 02:59:21;;;;;;;4.82;1.50;;;11.40;99.90;;;;;;4987640;28;20050;-81
2022/11/02 03:01:47;;;;;;;4.60;1.60;;;11.40;99.90;;;;;;4988294;28;20053;-80
2022/11/02 03:04:14;;;;;;;5.53;1.95;;;11.40;99.90;;;;;;4989458;28;20089;-80
2022/11/02 03:06:49;;;;;;;5.07;2.10;;;11.40;99.90;;;;;;4988920;28;20110;-81
2022/11/02 03:09:29;;;;;;;5.80;1.58;;;11.40;99.90;;;;;;4968690;28;20101;-81
2022/11/02 03:12:21;;;;;;;5.78;1.30;;;11.40;99.90;;;;;;4966996;28;20236;-81
2022/11/02 03:14:53;;;;;;;6.25;1.95;;;11.40;99.90;;;;;;5003593;28;20521;-80
2022/11/02 03:17:43;;;;;;;4.13;1.43;;;11.30;99.90;;;;;;4990229;28;20050;-80
2022/11/02 03:20:21;;;;;;;4.40;1.23;;;11.30;99.90;;;;;;4985983;28;20356;-81
2022/11/02 03:22:52;;;;;;;3.80;1.00;;;11.20;99.90;;;;;;4985937;28;20501;-81
2022/11/02 03:25:26;;;;;;;3.30;0.90;;;11.10;99.90;;;;;;4971709;28;20042;-80
2022/11/02 03:27:54;;;;;;;4.47;1.13;;;11.10;99.90;;;;;;4986653;28;20058;-81
2022/11/02 03:30:22;;;;;;;6.57;1.50;;;11.30;99.90;;;;;;4972800;28;20046;-81
2022/11/02 03:33:08;;;;;;;5.57;1.02;;;11.00;99.90;;;;;;4986072;28;20117;-81
2022/11/02 03:36:05;;;;;;;3.08;1.25;;;10.90;99.90;;;;;;4970109;28;20103;-81
2022/11/02 03:38:43;;;;;;;4.55;1.38;;;10.90;99.90;;;;;;4958104;28;20531;-80
2022/11/02 03:41:10;;;;;;;4.07;1.15;;;10.80;99.90;;;;;;4953443;28;20130;-79
2022/11/02 03:43:38;;;;;;;3.45;1.27;;;11.10;99.90;;;;;;4975828;28;20046;-80
2022/11/02 03:46:07;;;;;;;4.80;1.30;;;10.80;99.90;;;;;;4970019;28;20081;-81
2022/11/02 03:48:43;;;;;;;5.05;1.02;;;10.80;99.90;;;;;;4985320;28;20409;-81
2022/11/02 03:51:19;;;;;;;3.95;1.20;;;10.80;99.90;;;;;;4985545;28;20142;-82
2022/11/02 03:53:53;;;;;;;3.30;1.20;;;10.70;99.90;;;;;;4988155;28;20050;-79
2022/11/02 03:56:49;;;;;;;3.60;1.23;;;10.70;99.90;;;;;;4989025;28;20062;-80
2022/11/02 03:59:15;;;;;;;5.63;1.20;;;10.70;99.90;;;;;;4984436;28;20453;-80
2022/11/02 04:01:47;;;;;;;6.32;1.00;;;10.70;99.90;;;;;;4987475;28;20129;-79
2022/11/02 04:04:13;;;;;;;4.05;1.00;;;10.60;99.90;;;;;;4982029;28;20046;-80
2022/11/02 04:06:40;;;;;;;3.60;0.93;;;10.60;99.90;;;;;;4981813;28;20057;-80
2022/11/02 04:09:06;;;;;;;7.57;1.70;;;10.60;99.90;;;;;;4985068;28;20104;-80
2022/11/02 04:20:12;;;;;;;4.85;1.05;;;10.50;99.90;;;;;;4985817;28;20185;-80
2022/11/02 04:25:25;;;;;;;4.97;1.40;;;10.50;99.90;;;;;;4974112;28;20049;-80
2022/11/02 04:27:54;;;;;;;6.95;1.73;;;10.60;99.90;;;;;;4986395;28;20282;-81
2022/11/02 04:30:22;;;;;;;6.50;1.40;;;10.60;99.90;;;;;;4987334;28;20053;-81
2022/11/02 04:35:36;;;;;;;8.85;1.38;;;10.60;99.90;;;;;;4986723;28;20485;-80
2022/11/02 04:40:46;;;;;;;7.75;1.80;;;10.70;99.90;;;;;;4984125;28;20054;-79
2022/11/02 04:43:12;;;;;;;6.75;1.60;;;10.80;99.90;;;;;;4984368;28;20078;-80
2022/11/02 04:45:37;;;;;;;5.95;1.55;;;10.80;99.90;;;;;;4986721;28;20038;-80
2022/11/02 04:48:05;;;;;;;5.68;1.65;;;11.30;99.90;;;;;;4969929;28;20083;-80
2022/11/02 04:50:31;;;;;;;3.50;1.30;;;10.80;99.90;;;;;;4986875;28;20042;-80
2022/11/02 04:53:02;;;;;;;6.10;1.23;;;11.40;99.90;;;;;;4985398;28;20050;-81
2022/11/02 04:55:28;;;;;;;4.95;1.80;;;10.90;99.90;;;;;;4984650;28;20053;-80
2022/11/02 04:57:54;;;;;;;5.45;1.70;;;10.90;99.90;;;;;;4984253;28;20054;-80
2022/11/02 05:00:21;;;;;;;6.35;2.10;;;11.00;99.90;;;;;;4989690;28;20045;-80
2022/11/02 05:02:48;;;;;;;5.50;1.70;;;11.30;99.90;;;;;;4982831;28;20046;-81
2022/11/02 05:05:15;;;;;;;6.57;2.13;;;11.00;99.90;;;;;;4989346;28;20046;-80
2022/11/02 05:07:41;;;;;;;5.32;1.80;;;11.00;99.90;;;;;;4988604;28;20068;-79
2022/11/02 05:10:07;;;;;;;6.35;1.67;;;11.00;99.90;;;;;;4973487;28;20504;-80
2022/11/02 05:12:33;;;;;;;5.05;1.63;;;11.10;99.90;;;;;;4988141;28;20039;-80
2022/11/02 05:14:58;;;;;;;7.18;1.73;;;11.10;99.90;;;;;;4989606;28;20591;-81
2022/11/02 05:17:24;;;;;;;8.68;1.73;;;11.10;99.90;;;;;;4991224;28;20129;-81
2022/11/02 05:19:50;;;;;;;6.57;1.70;;;11.10;99.90;;;;;;4990868;28;20101;-80
2022/11/02 05:22:15;;;;;;;4.80;1.38;;;11.10;99.90;;;;;;4988569;28;20046;-80
2022/11/02 05:24:41;;;;;;;4.25;1.65;;;11.10;99.90;;;;;;4990267;28;20552;-80
2022/11/02 05:27:08;;;;;;;4.57;1.83;;;11.10;99.90;;;;;;4987557;28;20046;-80
2022/11/02 05:29:33;;;;;;;9.27;1.73;;;11.10;99.90;;;;;;4989927;28;20038;-81
2022/11/02 05:31:59;;;;;;;8.85;1.70;;;11.10;99.90;;;;;;4990506;28;20580;-81
2022/11/02 05:34:25;;;;;;;10.30;1.98;;;11.00;99.90;;;;;;4988849;28;20074;-80
2022/11/02 05:36:50;;;;;;;5.10;1.55;;;11.00;99.90;;;;;;4988449;28;20053;-79
2022/11/02 05:39:16;;;;;;;5.65;1.85;;;11.00;99.90;;;;;;4986234;28;20050;-80
2022/11/02 05:41:42;;;;;;;8.35;2.47;;;11.00;99.90;;;;;;4989756;28;21125;-79
2022/11/02 05:44:07;;;;;;;8.98;1.92;;;11.00;99.90;;;;;;4973364;28;20493;-79
2022/11/02 05:46:33;;;;;;;5.40;1.90;;;11.00;99.90;;;;;;4989205;28;20046;-80
2022/11/02 05:48:58;;;;;;;5.72;2.05;;;10.90;99.90;;;;;;4987935;28;20141;-80
2022/11/02 05:51:24;;;;;;;11.18;2.33;;;10.90;99.90;;;;;;4973395;28;20049;-80
2022/11/02 05:53:50;;;;;;;7.60;1.90;;;10.90;99.90;;;;;;4990611;28;20511;-80
2022/11/02 05:56:15;;;;;;;9.63;2.22;;;10.90;99.90;;;;;;4989004;28;20066;-81
2022/11/02 05:58:41;;;;;;;8.38;2.50;;;10.90;99.90;;;;;;4969554;28;20125;-81
2022/11/02 06:01:08;;;;;;;10.77;2.33;;;10.80;99.90;;;;;;4990134;28;20644;-80
2022/11/02 06:03:34;;;;;;;7.70;2.33;;;10.80;99.90;;;;;;4987550;28;20104;-80
2022/11/02 06:06:05;;;;;;;5.90;1.95;;;10.80;99.90;;;;;;4984831;28;20056;-81
2022/11/02 06:08:33;;;;;;;12.23;2.22;;;10.80;99.90;;;;;;4990505;28;20058;-80
2022/11/02 06:11:04;;;;;;;10.45;2.20;;;10.80;99.90;;;;;;4987948;28;20061;-81
2022/11/02 06:13:29;;;;;;;6.47;2.08;;;10.80;99.90;;;;;;4985104;28;20050;-81
2022/11/02 06:15:58;;;;;;;11.23;2.20;;;10.70;99.90;;;;;;4987312;28;20053;-80
2022/11/02 06:18:24;;;;;;;6.40;2.50;;;10.70;99.90;;;;;;4970392;28;20061;-81
2022/11/02 06:20:49;;;;;;;8.73;2.38;;;10.70;99.90;;;;;;4986610;28;20050;-80
2022/11/02 06:23:17;;;;;;;11.05;2.75;;;10.60;99.90;;;;;;4988104;28;20416;-81
2022/11/02 06:25:48;;;;;;;10.30;2.55;;;10.70;99.90;;;;;;4989536;28;20052;-81
2022/11/02 06:28:14;;;;;;;10.35;2.65;;;10.60;99.90;;;;;;4984593;28;20404;-81
2022/11/02 06:30:41;;;;;;;7.75;2.53;;;10.70;99.90;;;;;;4970862;28;20053;-81
2022/11/02 06:33:06;;;;;;;13.00;2.60;;;10.70;99.90;;;;;;4989693;28;20166;-80
2022/11/02 06:35:32;;;;;;;9.20;2.85;;;10.60;99.90;;;;;;4970871;28;20058;-81
2022/11/02 06:38:01;;;;;;;9.10;2.47;;;10.60;99.90;;;;;;4989383;28;20054;-81
2022/11/02 06:40:27;;;;;;;10.00;3.05;;;10.60;99.90;;;;;;4989850;28;20046;-82
2022/11/02 06:42:58;;;;;;;8.63;2.15;;;10.60;99.90;;;;;;4990594;28;20417;-83
2022/11/02 06:45:24;;;;;;;11.80;2.40;;;10.60;99.90;;;;;;4989576;28;20057;-82
2022/11/02 06:47:50;;;;;;;9.30;3.00;;;10.60;99.90;;;;;;4987694;28;20069;-81
2022/11/02 06:50:16;;;;;;;7.50;2.65;;;10.60;99.90;;;;;;4989688;28;20042;-82
2022/11/02 06:52:43;;;;;;;8.38;2.38;;;10.60;99.90;;;;;;4989886;28;20780;-82
2022/11/02 06:55:10;;;;;;;9.10;2.22;;;10.70;99.90;;;;;;4988114;28;20061;-81
2022/11/02 06:57:37;;;;;;;8.88;2.40;;;10.70;99.90;;;;;;4987781;28;20046;-81
2022/11/02 07:00:04;;;;;;;10.30;2.22;;;10.70;99.90;;;;;;4984603;28;20050;-83
2022/11/02 07:02:30;;;;;;;11.10;2.10;;;10.80;99.90;;;;;;4987138;28;20129;-82
2022/11/02 07:04:56;;;;;;;9.30;2.50;;;10.80;99.90;;;;;;4988174;28;20779;-83
2022/11/02 07:07:22;;;;;;;11.98;2.17;;;10.80;99.90;;;;;;4972822;28;20050;-83
2022/11/02 07:09:47;;;;;;;8.43;2.28;;;10.90;99.90;;;;;;4972736;28;20048;-82
2022/11/02 07:12:13;;;;;;;8.73;2.25;;;10.90;99.90;;;;;;4988782;28;20053;-82
2022/11/02 07:14:38;;;;;;;8.77;2.45;;;11.00;99.90;;;;;;4988966;28;20580;-82
2022/11/02 07:17:04;;;;;;;10.27;2.28;;;11.10;99.90;;;;;;4986947;28;20053;-81
2022/11/02 07:19:30;;;;;;;6.45;2.97;;;11.10;99.90;;;;;;4988034;28;20045;-82
2022/11/02 07:21:56;;;;;;;11.40;2.70;;;11.10;99.90;;;;;;4988014;28;20409;-82
2022/11/02 07:24:21;;;;;;;9.15;2.70;;;11.70;99.90;;;;;;4988811;28;20451;-81
2022/11/02 07:26:48;;;;;;;9.98;2.20;;;11.00;99.90;;;;;;4971954;28;20133;-80
2022/11/02 07:29:15;;;;;;;12.20;2.45;;;11.00;99.90;;;;;;4981761;28;20096;-82
2022/11/02 07:31:40;;;;;;;9.07;2.20;;;11.00;99.90;;;;;;4981874;28;20531;-83
2022/11/02 07:34:06;;;;;;;9.65;2.53;;;11.00;99.90;;;;;;4987022;28;20070;-82
2022/11/02 07:36:31;;;;;;;14.77;3.00;;;10.90;99.90;;;;;;4970899;28;20448;-83
2022/11/02 07:38:57;;;;;;;13.63;2.90;;;10.90;99.90;;;;;;4987457;28;20053;-82
2022/11/02 07:41:22;;;;;;;13.15;2.03;;;10.80;99.90;;;;;;4988694;28;20057;-81
2022/11/02 07:43:48;;;;;;;8.23;1.60;;;10.80;99.90;;;;;;4984408;28;20055;-80
2022/11/02 07:46:14;;;;;;;8.27;2.47;;;10.70;99.90;;;;;;4987212;28;20039;-79
2022/11/02 07:48:39;;;;;;;11.80;2.95;;;10.70;99.90;;;;;;4987947;28;20039;-80
2022/11/02 07:51:06;;;;;;;9.45;2.50;;;10.70;99.90;;;;;;4987299;28;20038;-81
2022/11/02 07:53:33;;;;;;;9.68;2.42;;;10.70;99.90;;;;;;4986892;28;20108;-81
2022/11/02 07:56:05;;;;;;;8.07;1.77;;;10.60;99.90;;;;;;4987126;28;20061;-80
2022/11/02 07:58:32;;;;;;;5.65;1.70;;;10.60;99.90;;;;;;4986115;28;20579;-82
2022/11/02 08:00:59;;;;;;;10.63;2.13;;;10.70;99.90;;;;;;4966240;28;20042;-80
2022/11/02 08:03:25;;;;;;;11.32;2.10;;;10.70;99.90;;;;;;4970205;28;20335;-79
2022/11/02 08:05:51;;;;;;;7.93;2.08;;;10.80;99.90;;;;;;4985158;28;20042;-79
2022/11/02 08:08:18;;;;;;;8.40;1.75;;;10.80;99.90;;;;;;4971956;28;20042;-78
2022/11/02 08:10:45;;;;;;;8.02;2.75;;;10.80;99.90;;;;;;4988256;28;20385;-79
2022/11/02 08:13:14;;;;;;;6.85;1.90;;;10.80;99.90;;;;;;4987898;28;20050;-80
2022/11/02 08:15:40;;;;;;;15.80;3.00;;;10.80;99.90;;;;;;4971401;28;20046;-79
2022/11/02 08:18:26;;;;;;;11.65;2.30;;;10.90;99.90;;;;;;4991513;28;20485;-79
2022/11/02 08:20:53;;;;;;;10.13;2.05;;;10.80;99.90;;;;;;4988445;28;20404;-80
2022/11/02 08:23:19;;;;;;;8.45;1.75;;;10.90;99.90;;;;;;4988320;28;20460;-79
2022/11/02 08:25:47;;;;;;;10.38;1.88;;;10.90;99.90;;;;;;4985641;28;20105;-79
2022/11/02 08:28:19;;;;;;;10.40;1.73;;;12.30;99.90;;;;;;4987585;28;20397;-80
2022/11/02 08:30:44;;;;;;;10.88;2.53;;;11.10;99.90;;;;;;4990410;28;20086;-78
2022/11/02 08:33:14;;;;;;;7.57;2.10;;;11.10;99.90;;;;;;4988173;28;20428;-79
2022/11/02 08:35:40;;;;;;;9.60;1.65;;;11.20;99.90;;;;;;4988970;28;20185;-80
2022/11/02 08:38:07;;;;;;;11.65;2.33;;;11.30;99.90;;;;;;4988053;28;20046;-81
2022/11/02 08:40:34;;;;;;;8.70;2.35;;;11.30;99.90;;;;;;4986492;28;20085;-80
2022/11/02 08:43:02;;;;;;;8.88;2.22;;;11.30;99.90;;;;;;4969804;28;20104;-80
2022/11/02 08:45:29;;;;;;;6.30;1.20;;;11.40;99.90;;;;;;4964134;28;20409;-80
2022/11/02 08:47:55;;;;;;;14.20;2.25;;;11.40;99.90;;;;;;4974526;28;20057;-79
2022/11/02 08:50:21;;;;;;;6.30;1.30;;;11.40;99.90;;;;;;4985047;28;20046;-80
2022/11/02 08:52:46;;;;;;;5.43;1.65;;;11.50;99.90;;;;;;4988419;28;20039;-81
2022/11/02 08:55:12;;;;;;;7.47;1.85;;;11.50;99.90;;;;;;4989382;28;20046;-79
2022/11/02 08:57:49;;;;;;;9.60;1.88;;;11.60;99.90;;;;;;4988659;28;20116;-80
2022/11/02 09:00:16;;;;;;;5.20;1.30;;;11.60;99.90;;;;;;4989616;28;20097;-81
2022/11/02 09:02:42;;;;;;;4.32;1.27;;;11.70;99.90;;;;;;4986972;28;20491;-79
2022/11/02 09:05:09;;;;;;;6.78;1.90;;;11.80;99.90;;;;;;4987833;28;20819;-80
2022/11/02 09:07:35;;;;;;;6.00;1.52;;;11.80;99.90;;;;;;4970326;28;20045;-81
2022/11/02 09:10:01;;;;;;;6.15;1.70;;;12.00;99.90;;;;;;4969743;28;20043;-80
2022/11/02 09:12:26;;;;;;;7.00;1.55;;;11.90;99.90;;;;;;4969793;28;20061;-80
2022/11/02 09:14:52;;;;;;;5.53;1.50;;;12.00;99.90;;;;;;4969253;28;20050;-80
2022/11/02 09:17:17;;;;;;;5.97;1.17;;;12.00;99.90;;;;;;4969769;28;20038;-79
2022/11/02 09:19:43;;;;;;;4.30;1.27;;;12.00;99.90;;;;;;4969700;28;20054;-80
2022/11/02 09:22:08;;;;;;;6.45;1.55;;;12.00;99.90;;;;;;4968940;28;20100;-79
2022/11/02 09:24:34;;;;;;;6.18;1.35;;;11.60;99.90;;;;;;4968919;28;20505;-80
2022/11/02 09:27:00;;;;;;;6.72;1.30;;;12.10;99.90;;;;;;4967211;28;20504;-80
2022/11/02 09:29:25;;;;;;;9.20;1.27;;;12.20;99.90;;;;;;4969480;28;20101;-80
2022/11/02 09:31:51;;;;;;;6.80;1.40;;;12.20;99.90;;;;;;4969609;28;20086;-79
2022/11/02 09:34:17;;;;;;;4.57;1.33;;;12.30;99.90;;;;;;4968093;28;20057;-80
2022/11/02 09:36:42;;;;;;;6.13;1.33;;;12.40;99.90;;;;;;4988876;28;20043;-80
2022/11/02 09:39:08;;;;;;;4.60;1.73;;;12.00;99.90;;;;;;4989253;28;20077;-80
2022/11/02 09:41:45;;;;;;;6.22;1.50;;;12.50;99.90;;;;;;4988756;28;20054;-80
2022/11/02 09:44:17;;;;;;;3.08;1.30;;;12.60;99.90;;;;;;4987537;28;20423;-79
2022/11/02 09:46:45;;;;;;;7.28;1.70;;;12.60;99.90;;;;;;4990680;28;20054;-79
2022/11/02 09:49:15;;;;;;;6.85;1.52;;;12.60;99.90;;;;;;4975553;28;20058;-79
2022/11/02 09:51:55;;;;;;;7.45;1.60;;;12.60;99.90;;;;;;4992556;28;20050;-80
2022/11/02 09:54:42;;;;;;;5.95;1.95;;;12.60;99.90;;;;;;4992271;28;20045;-80
2022/11/02 09:57:20;;;;;;;10.52;2.03;;;12.70;99.90;;;;;;4991341;28;20473;-80
2022/11/02 09:59:46;;;;;;;3.67;1.23;;;12.70;99.90;;;;;;4974763;28;20054;-80
2022/11/02 10:02:46;;;;;;;6.28;1.80;;;12.80;99.90;;;;;;4990766;28;20404;-79
2022/11/02 10:05:17;;;;;;;7.70;1.85;;;12.90;99.90;;;;;;4990841;28;20057;-79
2022/11/02 10:07:51;;;;;;;7.00;1.38;;;12.90;99.90;;;;;;4990322;28;20046;-80
2022/11/02 10:10:31;;;;;;;5.63;1.60;;;13.00;99.90;;;;;;4992313;28;20051;-81
2022/11/02 10:13:12;;;;;;;5.20;1.38;;;13.10;99.90;;;;;;4991205;28;20081;-80
2022/11/02 10:15:49;;;;;;;7.38;2.10;;;13.20;99.90;;;;;;4990418;28;20051;-80
2022/11/02 10:18:22;;;;;;;3.88;1.30;;;13.20;99.90;;;;;;4991445;28;20575;-80
2022/11/02 10:20:54;;;;;;;5.80;1.33;;;13.30;99.90;;;;;;4991821;28;20128;-79
2022/11/02 10:23:34;;;;;;;9.63;2.00;;;13.30;99.90;;;;;;4976337;28;20050;-79
2022/11/02 10:26:01;;;;;;;5.30;1.50;;;13.30;99.90;;;;;;4970493;28;20509;-80
2022/11/02 10:28:32;;;;;;;7.80;1.63;;;13.30;99.90;;;;;;4971748;28;20535;-81
2022/11/02 10:31:00;;;;;;;6.88;1.92;;;13.30;99.90;;;;;;4971172;28;20350;-81
2022/11/02 10:33:28;;;;;;;10.05;1.50;;;13.40;99.90;;;;;;4972255;28;20081;-80
2022/11/02 10:36:25;;;;;;;8.45;2.15;;;13.30;99.90;;;;;;4972002;28;20058;-80
2022/11/02 10:39:14;;;;;;;7.25;1.52;;;13.30;99.90;;;;;;4972685;28;20051;-79
2022/11/02 10:42:03;;;;;;;6.32;1.40;;;13.50;99.90;;;;;;4969879;28;20485;-79
2022/11/02 10:44:33;;;;;;;8.25;1.50;;;13.70;99.90;;;;;;4972353;28;20528;-81
2022/11/02 10:47:45;;;;;;;9.05;1.75;;;13.80;99.90;;;;;;4970939;28;20154;-80
2022/11/02 10:50:29;;;;;;;6.03;1.40;;;13.90;99.90;;;;;;4970430;28;20057;-81
2022/11/02 10:53:00;;;;;;;5.65;1.35;;;13.90;99.90;;;;;;4970604;28;20047;-80
2022/11/02 10:55:31;;;;;;;7.25;1.30;;;13.90;99.90;;;;;;4970756;28;20098;-80
2022/11/02 10:58:01;;;;;;;10.45;1.52;;;13.90;99.90;;;;;;4985518;28;20512;-80
2022/11/02 11:00:36;;;;;;;6.28;1.52;;;13.80;99.90;;;;;;4989156;28;20058;-81
2022/11/02 11:03:16;;;;;;;7.20;1.48;;;13.80;99.90;;;;;;4988609;28;20078;-81
2022/11/02 11:05:50;;;;;;;5.95;1.30;;;13.80;99.90;;;;;;4989714;28;20234;-80
2022/11/02 11:08:37;;;;;;;6.22;1.30;;;13.90;99.90;;;;;;4987064;28;20050;-80
2022/11/02 11:11:24;;;;;;;5.63;1.35;;;13.90;99.90;;;;;;4977774;28;20061;-80
2022/11/02 11:14:01;;;;;;;5.65;1.33;;;13.90;99.90;;;;;;4990265;28;20058;-79
2022/11/02 11:16:53;;;;;;;7.07;1.42;;;13.70;99.90;;;;;;4988848;28;20050;-79
2022/11/02 11:19:40;;;;;;;5.47;1.20;;;13.70;99.90;;;;;;4984298;28;20504;-81
2022/11/02 11:22:25;;;;;;;9.43;1.67;;;13.70;99.90;;;;;;4987311;28;20058;-79
2022/11/02 11:24:52;;;;;;;6.65;1.10;;;13.60;99.90;;;;;;4977979;28;20507;-80
2022/11/02 11:27:19;;;;;;;7.93;1.92;;;13.70;99.90;;;;;;5009452;28;20516;-81
2022/11/02 11:29:57;;;;;;;4.30;1.40;;;13.80;99.90;;;;;;4987852;28;20039;-79
2022/11/02 11:32:28;;;;;;;7.25;1.38;;;14.00;99.90;;;;;;4983060;28;20113;-81
2022/11/02 11:35:04;;;;;;;6.45;1.75;;;14.10;99.90;;;;;;4987986;28;20038;-81
2022/11/02 11:37:30;;;;;;;5.35;1.15;;;14.20;99.90;;;;;;4988497;28;20042;-79
2022/11/02 11:40:06;;;;;;;9.63;1.65;;;14.30;99.90;;;;;;4987695;28;20417;-81
2022/11/02 11:42:35;;;;;;;8.05;1.45;;;14.40;99.90;;;;;;4983625;28;20046;-80
2022/11/02 11:45:05;;;;;;;6.45;1.25;;;14.40;99.90;;;;;;4988442;28;20811;-80
2022/11/02 11:47:36;;;;;;;5.30;1.15;;;14.20;99.90;;;;;;4989529;28;20046;-79
2022/11/02 11:50:05;;;;;;;8.43;2.13;;;14.20;99.90;;;;;;4989207;28;20048;-80
2022/11/02 11:52:32;;;;;;;5.70;1.48;;;14.20;99.90;;;;;;4988600;28;20152;-79
2022/11/02 11:55:19;;;;;;;7.22;1.50;;;14.20;99.90;;;;;;4988813;28;20496;-80
2022/11/02 11:57:45;;;;;;;8.45;1.45;;;14.20;99.90;;;;;;4987800;28;20550;-81
2022/11/02 12:00:29;;;;;;;7.00;1.30;;;14.20;99.90;;;;;;4989142;28;20054;-80
2022/11/02 12:03:08;;;;;;;4.03;1.30;;;14.20;99.90;;;;;;4987108;28;20090;-81
2022/11/02 12:05:57;;;;;;;7.78;1.50;;;14.30;99.90;;;;;;4986295;28;20057;-81
2022/11/02 12:08:49;;;;;;;6.25;1.13;;;14.40;99.90;;;;;;4969002;28;20066;-80
2022/11/02 12:11:30;;;;;;;5.80;1.60;;;14.40;99.90;;;;;;4968117;28;20084;-80
2022/11/02 12:14:35;;;;;;;4.03;1.10;;;14.40;99.90;;;;;;4968459;28;20113;-80
2022/11/02 12:17:19;;;;;;;7.53;1.10;;;14.90;99.90;;;;;;4967900;28;20066;-80
2022/11/02 12:19:44;;;;;;;6.03;1.35;;;14.60;99.90;;;;;;4968405;28;20054;-80
2022/11/02 12:22:50;;;;;;;6.35;1.52;;;14.60;99.90;;;;;;4986949;28;20046;-81
2022/11/02 12:25:37;;;;;;;9.40;1.13;;;14.60;99.90;;;;;;4974554;28;20408;-81
2022/11/02 12:28:18;;;;;;;7.68;1.30;;;14.70;99.90;;;;;;4987105;28;20057;-80
2022/11/02 12:30:44;;;;;;;8.02;2.17;;;15.00;99.90;;;;;;4989341;28;20136;-81
2022/11/02 12:33:10;;;;;;;4.45;0.98;;;;;;;;;;4989081;28;20161;-80
2022/11/02 12:35:46;;;;;;;5.20;1.45;;;14.70;99.90;;;;;;4988280;28;20045;-79
2022/11/02 12:38:23;;;;;;;4.10;0.95;;;14.60;99.90;;;;;;4987457;28;20078;-81
2022/11/02 12:41:25;;;;;;;3.58;1.15;;;14.30;99.90;;;;;;4988418;28;20085;-80
2022/11/02 12:44:02;;;;;;;5.20;1.27;;;14.40;99.90;;;;;;4986545;28;20054;-81
2022/11/02 12:46:42;;;;;;;7.40;1.45;;;14.40;99.90;;;;;;4984787;28;21041;-79
2022/11/02 12:49:25;;;;;;;3.20;1.00;;;14.30;99.90;;;;;;4971091;28;20054;-80
2022/11/02 12:52:06;;;;;;;7.72;1.70;;;14.60;99.90;;;;;;4971128;28;20082;-81
2022/11/02 12:54:46;;;;;;;8.25;1.58;;;14.60;99.90;;;;;;4986683;28;20071;-81
2022/11/02 12:57:21;;;;;;;7.78;1.50;;;14.60;99.90;;;;;;4964426;28;20058;-81
2022/11/02 12:59:53;;;;;;;7.90;1.52;;;14.50;99.90;;;;;;4970063;28;20134;-80
2022/11/02 13:02:28;;;;;;;5.70;1.23;;;14.90;99.90;;;;;;4969313;28;20051;-81
2022/11/02 13:05:08;;;;;;;6.95;1.27;;;14.30;99.90;;;;;;4969552;28;20061;-81
2022/11/02 13:07:47;;;;;;;4.93;1.08;;;14.10;99.90;;;;;;4969538;28;20051;-81
2022/11/02 13:10:20;;;;;;;5.85;1.10;;;14.00;99.90;;;;;;4968620;28;20457;-81
2022/11/02 13:12:50;;;;;;;4.85;1.35;;;13.90;99.90;;;;;;4973391;28;20251;-80
2022/11/02 13:15:21;;;;;;;6.03;1.10;;;13.90;99.90;;;;;;4988832;28;20058;-82
2022/11/02 13:17:55;;;;;;;10.35;1.85;;;14.00;99.90;;;;;;4987292;28;20042;-81
2022/11/02 13:20:40;;;;;;;5.25;1.08;;;14.00;99.90;;;;;;4970418;28;20129;-80
2022/11/02 13:23:35;;;;;;;5.68;1.63;;;14.20;99.90;;;;;;4991267;28;20512;-80